Time;durP1;ratioP1;P1;durP2;ratioP2;P2;SDS_P1;SDS_P2;PMS_P1;PMS_P2;Temp;Humidity;BMP_temperature;BMP_pressure;BME280_temperature;BME280_humidity;BME280_pressure;Samples;Min_cycle;Max_cycle;Signal;HPM_P1;HPM_P2
2023/05/25 00:02:33;;;;;;;;;;;19.80;57.10;;;;;;10250495;28;93581;-65
2023/05/25 00:07:35;;;;;;;;;;;19.80;57.00;;;;;;10250818;28;94451;-66
2023/05/25 00:12:37;;;;;;;;;;;19.80;57.20;;;;;;10252102;28;92816;-65
2023/05/25 00:17:39;;;;;;;;;;;19.80;57.10;;;;;;10234107;28;93723;-65
2023/05/25 00:22:43;;;;;;;;;;;19.80;57.00;;;;;;10233514;28;94410;-65
2023/05/25 00:27:45;;;;;;;;;;;19.70;57.10;;;;;;10248215;28;96027;-65
2023/05/25 00:32:47;;;;;;;;;;;19.70;57.10;;;;;;10249915;28;93540;-65
2023/05/25 00:37:50;;;;;;;;;;;19.70;57.10;;;;;;10250002;28;94789;-66
2023/05/25 00:42:52;;;;;;;;;;;19.70;57.00;;;;;;10249986;28;93668;-65
2023/05/25 00:47:53;;;;;;;;;;;19.70;57.00;;;;;;10249429;28;92552;-65
2023/05/25 00:52:56;;;;;;;;;;;19.70;57.00;;;;;;10250062;28;93563;-65
2023/05/25 00:57:59;;;;;;;;;;;19.70;57.00;;;;;;10231484;28;93605;-65
2023/05/25 01:03:03;;;;;;;;;;;19.70;57.00;;;;;;10233334;28;93937;-65
2023/05/25 01:08:06;;;;;;;;;;;19.80;57.00;;;;;;10249153;28;93410;-65
2023/05/25 01:13:08;;;;;;;;;;;19.70;57.00;;;;;;10250094;28;95276;-65
2023/05/25 01:18:13;;;;;;;;;;;19.70;56.90;;;;;;10247064;28;95895;-65
2023/05/25 01:23:16;;;;;;;;;;;19.70;57.00;;;;;;10248534;28;93587;-64
2023/05/25 01:28:24;;;;;;;;;;;19.70;56.90;;;;;;10248014;28;93436;-65
2023/05/25 01:33:26;;;;;;;;;;;19.80;57.00;;;;;;10248572;28;93571;-65
2023/05/25 01:38:28;;;;;;;;;;;19.70;56.90;;;;;;10247202;28;93418;-65
2023/05/25 01:43:30;;;;;;;;;;;19.80;56.90;;;;;;10247846;28;92490;-65
2023/05/25 01:48:39;;;;;;;;;;;19.70;56.80;;;;;;10247124;28;93662;-65
2023/05/25 01:53:43;;;;;;;;;;;19.80;56.90;;;;;;10247626;28;92618;-64
2023/05/25 01:58:47;;;;;;;;;;;19.70;56.70;;;;;;10246959;28;93575;-64
2023/05/25 02:03:49;;;;;;;;;;;19.80;56.70;;;;;;10228711;28;93520;-65
2023/05/25 02:08:51;;;;;;;;;;;19.80;56.80;;;;;;10245031;28;96774;-65
2023/05/25 02:13:52;;;;;;;;;;;19.70;56.70;;;;;;10247114;28;94243;-65
2023/05/25 02:18:56;;;;;;;;;;;19.80;56.80;;;;;;10246419;28;94499;-65
2023/05/25 02:23:59;;;;;;;;;;;19.70;56.80;;;;;;10246674;28;94644;-65
2023/05/25 02:29:01;;;;;;;;;;;19.70;56.80;;;;;;10247443;28;94763;-64
2023/05/25 02:34:02;;;;;;;;;;;19.70;56.80;;;;;;10246124;28;94651;-65
2023/05/25 02:39:04;;;;;;;;;;;19.70;56.80;;;;;;10246409;28;93533;-65
2023/05/25 02:44:06;;;;;;;;;;;19.70;56.80;;;;;;10252488;28;93415;-65
2023/05/25 02:49:08;;;;;;;;;;;19.60;56.80;;;;;;10235263;28;93991;-65
2023/05/25 02:54:10;;;;;;;;;;;19.70;56.90;;;;;;10252959;28;94115;-65
2023/05/25 02:59:12;;;;;;;;;;;19.60;56.90;;;;;;10233265;28;95938;-64
2023/05/25 03:04:14;;;;;;;;;;;19.60;56.90;;;;;;10252530;28;93481;-65
2023/05/25 03:09:16;;;;;;;;;;;19.60;56.90;;;;;;10252054;28;93626;-65
2023/05/25 03:14:18;;;;;;;;;;;19.60;56.90;;;;;;10252446;28;93618;-65
2023/05/25 03:19:20;;;;;;;;;;;19.60;56.90;;;;;;10251760;28;93594;-65
2023/05/25 03:24:22;;;;;;;;;;;19.60;56.90;;;;;;10253191;28;94947;-65
2023/05/25 03:29:24;;;;;;;;;;;19.60;56.90;;;;;;10251427;28;94490;-65
2023/05/25 03:34:25;;;;;;;;;;;19.60;56.90;;;;;;10254261;28;93746;-65
2023/05/25 03:39:27;;;;;;;;;;;19.50;56.80;;;;;;10252606;28;92583;-65
2023/05/25 03:44:29;;;;;;;;;;;19.50;56.80;;;;;;10251821;28;93510;-65
2023/05/25 05:06:56;;;;;;;;;;;19.40;57.10;;;;;;10166797;28;95278;-65
2023/05/25 05:12:00;;;;;;;;;;;19.40;57.30;;;;;;10168526;28;93676;-66
2023/05/25 05:17:02;;;;;;;;;;;19.50;57.70;;;;;;10168891;28;94673;-66
2023/05/25 05:22:04;;;;;;;;;;;19.50;57.70;;;;;;10169488;28;94486;-67
2023/05/25 05:27:05;;;;;;;;;;;19.60;58.60;;;;;;10151437;28;93537;-68
2023/05/25 05:32:07;;;;;;;;;;;19.60;59.90;;;;;;10169152;28;92774;-69
2023/05/25 05:37:09;;;;;;;;;;;19.60;60.00;;;;;;10168036;28;93526;-68
2023/05/25 05:42:11;;;;;;;;;;;19.70;59.80;;;;;;10168693;28;94500;-68
2023/05/25 05:47:13;;;;;;;;;;;19.70;59.60;;;;;;10148384;28;97116;-66
2023/05/25 05:52:15;;;;;;;;;;;19.70;59.40;;;;;;10168307;28;94643;-67
2023/05/25 05:57:17;;;;;;;;;;;19.70;60.30;;;;;;10167134;28;94520;-68
2023/05/25 06:02:19;;;;;;;;;;;19.70;60.10;;;;;;10166223;28;93645;-67
2023/05/25 06:07:21;;;;;;;;;;;19.80;60.60;;;;;;10166564;28;93428;-67
2023/05/25 06:12:22;;;;;;;;;;;19.80;60.40;;;;;;10168090;28;94756;-68
2023/05/25 06:17:24;;;;;;;;;;;19.80;60.40;;;;;;10150591;28;94996;-67
2023/05/25 06:22:27;;;;;;;;;;;19.80;60.40;;;;;;10168550;28;92413;-69
2023/05/25 06:27:29;;;;;;;;;;;19.90;60.30;;;;;;10166087;28;92668;-70
2023/05/25 06:32:31;;;;;;;;;;;19.80;60.00;;;;;;10167748;28;93555;-69
2023/05/25 06:37:34;;;;;;;;;;;19.80;59.80;;;;;;10164144;28;95354;-68
2023/05/25 06:42:36;;;;;;;;;;;19.70;60.00;;;;;;10128550;28;93561;-68
2023/05/25 06:47:38;;;;;;;;;;;19.70;59.90;;;;;;10125275;28;94965;-68
2023/05/25 06:52:40;;;;;;;;;;;19.70;59.80;;;;;;10125864;28;92573;-69
2023/05/25 06:57:43;;;;;;;;;;;19.60;59.70;;;;;;10127073;28;93427;-68
2023/05/25 07:02:45;;;;;;;;;;;19.60;59.70;;;;;;10129284;28;94846;-68
2023/05/25 07:07:47;;;;;;;;;;;19.70;59.80;;;;;;10162950;28;93596;-68
2023/05/25 07:12:49;;;;;;;;;;;19.60;59.70;;;;;;10163447;28;92320;-68
2023/05/25 07:17:51;;;;;;;;;;;19.60;59.80;;;;;;10164992;28;93668;-68
2023/05/25 07:22:52;;;;;;;;;;;19.60;59.80;;;;;;10168416;28;93892;-68
2023/05/25 07:27:54;;;;;;;;;;;19.60;59.70;;;;;;10166673;28;95940;-69
2023/05/25 07:32:57;;;;;;;;;;;19.60;59.70;;;;;;10171829;28;93322;-68
2023/05/25 07:37:59;;;;;;;;;;;19.60;59.60;;;;;;10154977;28;94778;-68
2023/05/25 07:43:01;;;;;;;;;;;19.60;59.60;;;;;;10171526;28;93471;-69
2023/05/25 07:48:05;;;;;;;;;;;19.60;59.50;;;;;;10171430;28;92977;-70
2023/05/25 07:53:07;;;;;;;;;;;19.70;59.40;;;;;;10169592;28;93484;-69
2023/05/25 07:58:09;;;;;;;;;;;19.70;59.40;;;;;;10153695;28;93589;-70
2023/05/25 08:03:12;;;;;;;;;;;19.60;59.20;;;;;;10171639;28;93938;-69
2023/05/25 08:08:14;;;;;;;;;;;19.70;59.20;;;;;;10171003;28;92998;-69
2023/05/25 08:13:15;;;;;;;;;;;19.70;59.30;;;;;;10170917;28;94445;-70
2023/05/25 08:18:18;;;;;;;;;;;19.60;59.20;;;;;;10168821;28;97050;-70
2023/05/25 08:23:20;;;;;;;;;;;19.70;59.10;;;;;;10170821;28;93531;-69
2023/05/25 08:28:22;;;;;;;;;;;19.70;59.20;;;;;;10170587;28;94544;-69
2023/05/25 08:33:24;;;;;;;;;;;19.70;59.10;;;;;;10170423;28;93470;-70
2023/05/25 08:38:27;;;;;;;;;;;19.70;58.80;;;;;;10167831;28;94653;-69
2023/05/25 08:43:29;;;;;;;;;;;19.70;58.90;;;;;;10170476;28;93656;-69
2023/05/25 08:48:32;;;;;;;;;;;19.70;58.90;;;;;;10170182;28;92485;-69
2023/05/25 08:53:43;;;;;;;;;;;19.70;58.90;;;;;;10170211;28;93856;-69
2023/05/25 08:58:51;;;;;;;;;;;19.70;58.80;;;;;;10170003;28;94840;-69
2023/05/25 09:03:55;;;;;;;;;;;19.70;59.00;;;;;;10169910;28;94429;-69
2023/05/25 09:08:57;;;;;;;;;;;19.70;58.70;;;;;;10165432;28;95826;-68
2023/05/25 09:13:59;;;;;;;;;;;19.70;58.60;;;;;;10169264;28;93530;-69
2023/05/25 09:19:01;;;;;;;;;;;19.70;58.70;;;;;;10168990;28;94521;-70
2023/05/25 09:24:03;;;;;;;;;;;19.70;58.60;;;;;;10152010;28;94517;-69
2023/05/25 09:29:04;;;;;;;;;;;19.70;58.60;;;;;;10167103;28;94285;-70
2023/05/25 09:34:13;;;;;;;;;;;19.70;58.60;;;;;;10169572;28;94899;-69
2023/05/25 09:39:15;;;;;;;;;;;19.70;58.50;;;;;;10168798;28;94517;-70
2023/05/25 09:44:18;;;;;;;;;;;19.70;58.50;;;;;;10169244;28;93843;-69
2023/05/25 09:49:20;;;;;;;;;;;19.70;58.60;;;;;;10167538;28;93632;-69
2023/05/25 09:54:21;;;;;;;;;;;19.70;58.40;;;;;;10168007;28;94427;-69
2023/05/25 09:59:23;;;;;;;;;;;19.70;58.40;;;;;;10165187;28;96204;-69
2023/05/25 10:04:25;;;;;;;;;;;19.70;58.40;;;;;;10168434;28;93574;-70
2023/05/25 10:09:28;;;;;;;;;;;19.70;58.30;;;;;;10161716;28;94602;-68
2023/05/25 10:14:31;;;;;;;;;;;19.70;58.40;;;;;;10199503;28;93534;-68
2023/05/25 10:19:41;;;;;;;;;;;19.70;58.30;;;;;;10207621;28;94545;-68
2023/05/25 10:24:58;;;;;;;;;;;19.70;58.30;;;;;;10190771;28;93526;-68
2023/05/25 10:30:00;;;;;;;;;;;19.70;58.30;;;;;;10189770;28;93096;-69
2023/05/25 10:35:03;;;;;;;;;;;19.70;58.40;;;;;;10207316;28;92691;-69
2023/05/25 10:40:07;;;;;;;;;;;19.70;58.40;;;;;;10207454;28;94438;-68
2023/05/25 10:45:09;;;;;;;;;;;19.70;58.20;;;;;;10206816;28;93730;-69
2023/05/25 10:50:23;;;;;;;;;;;19.70;58.20;;;;;;10204410;28;96876;-69
2023/05/25 10:55:30;;;;;;;;;;;19.70;58.10;;;;;;10206432;28;93886;-68
2023/05/25 11:00:32;;;;;;;;;;;19.70;58.20;;;;;;10206186;28;93495;-68
2023/05/25 11:05:35;;;;;;;;;;;19.70;58.10;;;;;;10195151;28;93407;-68
2023/05/25 11:10:47;;;;;;;;;;;19.70;58.10;;;;;;10212946;28;114067;-68
2023/05/25 11:16:08;;;;;;;;;;;19.70;58.20;;;;;;10213093;28;93522;-68
2023/05/25 11:21:14;;;;;;;;;;;19.70;58.20;;;;;;10213032;28;94833;-68
2023/05/25 11:26:19;;;;;;;;;;;19.70;58.30;;;;;;10213543;28;93143;-68
2023/05/25 11:31:28;;;;;;;;;;;19.70;58.10;;;;;;10212436;28;94456;-68
2023/05/25 11:36:32;;;;;;;;;;;19.70;57.80;;;;;;10212535;28;94526;-69
2023/05/25 11:41:35;;;;;;;;;;;19.70;57.70;;;;;;10193090;28;96238;-68
2023/05/25 11:46:37;;;;;;;;;;;19.80;57.50;;;;;;10210766;28;93707;-69
2023/05/25 11:51:39;;;;;;;;;;;19.80;57.50;;;;;;10211385;28;93503;-69
2023/05/25 11:56:41;;;;;;;;;;;19.80;57.40;;;;;;10211317;28;94202;-69
2023/05/25 12:01:43;;;;;;;;;;;19.80;57.40;;;;;;10195040;28;94803;-69
2023/05/25 12:06:46;;;;;;;;;;;19.80;57.60;;;;;;10211085;28;93061;-68
2023/05/25 12:11:48;;;;;;;;;;;19.80;57.60;;;;;;10212064;28;94863;-69
2023/05/25 12:16:51;;;;;;;;;;;19.80;57.50;;;;;;10211727;28;92934;-68
2023/05/25 12:21:53;;;;;;;;;;;19.90;57.40;;;;;;10210853;28;93508;-68
2023/05/25 12:27:00;;;;;;;;;;;19.90;57.20;;;;;;10211011;28;93362;-68
2023/05/25 12:32:03;;;;;;;;;;;19.90;57.30;;;;;;10208713;28;96888;-68
2023/05/25 12:37:16;;;;;;;;;;;19.90;57.40;;;;;;10209879;28;93863;-68
2023/05/25 12:42:18;;;;;;;;;;;19.90;57.10;;;;;;10210393;28;93524;-68
2023/05/25 12:47:23;;;;;;;;;;;19.90;57.10;;;;;;10213116;28;93259;-68
2023/05/25 12:52:35;;;;;;;;;;;20.00;57.10;;;;;;10212969;28;94437;-69
2023/05/25 12:57:37;;;;;;;;;;;20.00;57.10;;;;;;10208024;28;93005;-68
2023/05/25 13:02:45;;;;;;;;;;;20.10;57.20;;;;;;10209614;28;94608;-68
2023/05/25 13:07:52;;;;;;;;;;;20.10;57.20;;;;;;10209454;28;92685;-68
2023/05/25 13:12:57;;;;;;;;;;;20.00;57.10;;;;;;10209776;28;93792;-68
2023/05/25 13:17:58;;;;;;;;;;;20.00;57.00;;;;;;10191634;28;94209;-68
2023/05/25 13:23:01;;;;;;;;;;;20.00;57.00;;;;;;10207404;28;96933;-68
2023/05/25 13:28:05;;;;;;;;;;;20.10;57.10;;;;;;10208280;28;94089;-69
2023/05/25 13:33:06;;;;;;;;;;;20.10;56.90;;;;;;10209659;28;92983;-69
2023/05/25 13:38:09;;;;;;;;;;;20.10;56.80;;;;;;10209057;28;94412;-69
2023/05/25 13:43:11;;;;;;;;;;;20.10;56.70;;;;;;10207929;28;93552;-69
2023/05/25 13:48:13;;;;;;;;;;;20.10;56.60;;;;;;10205878;28;93547;-69
2023/05/25 13:53:15;;;;;;;;;;;20.10;56.50;;;;;;10207856;28;94149;-69
2023/05/25 13:58:16;;;;;;;;;;;20.10;56.70;;;;;;10191288;28;92803;-69
2023/05/25 14:03:18;;;;;;;;;;;20.00;56.60;;;;;;10207946;28;94478;-69
2023/05/25 14:08:20;;;;;;;;;;;20.00;56.40;;;;;;10207610;28;93443;-69
2023/05/25 14:13:22;;;;;;;;;;;20.00;56.20;;;;;;10205541;28;96066;-69
2023/05/25 14:18:24;;;;;;;;;;;20.00;55.50;;;;;;10207137;28;94480;-68
2023/05/25 14:23:26;;;;;;;;;;;20.00;56.00;;;;;;10207548;28;93493;-68
2023/05/25 14:28:29;;;;;;;;;;;20.00;56.10;;;;;;10208049;28;94288;-69
2023/05/25 14:33:35;;;;;;;;;;;20.00;55.80;;;;;;10206084;28;94058;-69
2023/05/25 14:38:37;;;;;;;;;;;20.00;56.10;;;;;;10212117;28;93553;-68
2023/05/25 14:43:39;;;;;;;;;;;19.90;56.70;;;;;;10213812;28;94268;-68
2023/05/25 14:48:40;;;;;;;;;;;19.90;56.20;;;;;;10213751;28;92908;-69
2023/05/25 14:53:42;;;;;;;;;;;19.90;55.90;;;;;;10196494;28;94544;-69
2023/05/25 14:58:44;;;;;;;;;;;19.90;56.00;;;;;;10213677;28;94811;-69
2023/05/25 15:03:46;;;;;;;;;;;19.90;55.90;;;;;;10210872;28;95944;-68
2023/05/25 15:08:48;;;;;;;;;;;19.90;56.70;;;;;;10211601;28;93482;-69
2023/05/25 15:13:50;;;;;;;;;;;19.90;57.10;;;;;;10193134;28;94509;-69
2023/05/25 15:18:51;;;;;;;;;;;19.90;56.80;;;;;;10212678;28;93542;-68
2023/05/25 15:23:53;;;;;;;;;;;19.90;56.80;;;;;;10195398;28;94508;-68
2023/05/25 15:28:55;;;;;;;;;;;19.90;56.90;;;;;;10213548;28;94673;-68
2023/05/25 15:33:56;;;;;;;;;;;19.90;57.10;;;;;;10194796;28;93492;-69
2023/05/25 15:39:00;;;;;;;;;;;19.90;56.90;;;;;;10214594;28;93814;-69
2023/05/25 15:44:01;;;;;;;;;;;19.80;56.80;;;;;;10194479;28;94473;-69
2023/05/25 15:49:09;;;;;;;;;;;19.90;56.60;;;;;;10210780;28;93601;-70
2023/05/25 15:54:11;;;;;;;;;;;19.80;56.60;;;;;;10209544;28;96988;-68
2023/05/25 15:59:15;;;;;;;;;;;19.90;56.90;;;;;;10210740;28;93493;-70
2023/05/25 16:04:17;;;;;;;;;;;19.80;56.80;;;;;;10211354;28;93665;-69
2023/05/25 16:09:20;;;;;;;;;;;19.80;57.00;;;;;;10212072;28;94539;-68
2023/05/25 16:14:21;;;;;;;;;;;19.80;57.00;;;;;;10210392;28;93350;-68
2023/05/25 16:19:23;;;;;;;;;;;19.90;57.10;;;;;;10210097;28;93590;-69
2023/05/25 16:24:25;;;;;;;;;;;20.00;59.40;;;;;;10210803;28;94109;-68
2023/05/25 16:29:27;;;;;;;;;;;20.20;59.70;;;;;;10210133;28;94182;-72
2023/05/25 16:34:29;;;;;;;;;;;20.50;62.80;;;;;;10210454;28;93743;-66
2023/05/25 16:39:32;;;;;;;;;;;20.80;60.50;;;;;;10209827;28;94440;-71
2023/05/25 16:44:33;;;;;;;;;;;20.80;60.40;;;;;;10208276;28;97088;-73
2023/05/25 16:49:35;;;;;;;;;;;21.00;59.90;;;;;;10210053;28;94627;-73
2023/05/25 16:54:37;;;;;;;;;;;21.10;59.30;;;;;;10210775;28;94078;-73
2023/05/25 16:59:39;;;;;;;;;;;21.10;59.20;;;;;;10208968;28;93700;-74
2023/05/25 17:04:41;;;;;;;;;;;21.10;59.40;;;;;;10209266;28;93550;-75
2023/05/25 17:09:43;;;;;;;;;;;21.20;59.90;;;;;;10191317;28;93184;-70
2023/05/25 17:14:45;;;;;;;;;;;21.20;61.00;;;;;;10209011;28;94214;-70
2023/05/25 17:19:46;;;;;;;;;;;21.20;61.00;;;;;;10191080;28;93756;-70
2023/05/25 17:24:48;;;;;;;;;;;21.20;60.80;;;;;;10206371;28;93638;-70
2023/05/25 17:29:50;;;;;;;;;;;21.20;60.70;;;;;;10208690;28;93575;-71
2023/05/25 17:34:52;;;;;;;;;;;21.20;60.70;;;;;;10205838;28;96067;-70
2023/05/25 17:39:53;;;;;;;;;;;21.20;60.60;;;;;;10209604;28;94501;-70
2023/05/25 17:44:55;;;;;;;;;;;21.20;60.70;;;;;;10209868;28;93600;-70
2023/05/25 17:49:57;;;;;;;;;;;21.20;60.70;;;;;;10210009;28;94508;-69
2023/05/25 17:54:59;;;;;;;;;;;21.20;60.60;;;;;;10210397;28;95334;-70
2023/05/25 18:00:01;;;;;;;;;;;21.20;60.60;;;;;;10209874;28;93884;-69
2023/05/25 18:05:03;;;;;;;;;;;21.30;60.60;;;;;;10210280;28;94533;-70
2023/05/25 18:10:05;;;;;;;;;;;21.30;60.40;;;;;;10211537;28;92147;-70
2023/05/25 18:15:07;;;;;;;;;;;21.30;60.20;;;;;;10212950;28;93488;-71
2023/05/25 18:20:09;;;;;;;;;;;21.30;60.10;;;;;;10213560;28;94520;-71
2023/05/25 18:25:11;;;;;;;;;;;21.30;60.00;;;;;;10208000;28;95767;-70
2023/05/25 18:30:13;;;;;;;;;;;21.30;60.00;;;;;;10207617;28;94666;-71
2023/05/25 18:35:15;;;;;;;;;;;21.30;59.70;;;;;;10208881;28;94555;-71
2023/05/25 18:40:16;;;;;;;;;;;21.30;59.70;;;;;;10207094;28;94583;-71
2023/05/25 18:45:18;;;;;;;;;;;21.20;59.60;;;;;;10205817;28;93458;-70
2023/05/25 18:50:20;;;;;;;;;;;21.10;59.40;;;;;;10206811;28;93656;-70
2023/05/25 18:55:22;;;;;;;;;;;21.10;59.40;;;;;;10207453;28;94487;-69
2023/05/25 19:00:23;;;;;;;;;;;21.00;59.30;;;;;;10207466;28;92824;-69
2023/05/25 19:05:25;;;;;;;;;;;20.90;59.30;;;;;;10207099;28;93574;-70
2023/05/25 19:10:27;;;;;;;;;;;20.90;59.30;;;;;;10209354;28;92902;-70
2023/05/25 19:15:29;;;;;;;;;;;20.80;59.40;;;;;;10188469;28;95513;-69
2023/05/25 19:20:31;;;;;;;;;;;20.80;59.30;;;;;;10206647;28;93654;-70
2023/05/25 19:25:33;;;;;;;;;;;20.80;59.40;;;;;;10210338;28;94474;-70
2023/05/25 19:30:35;;;;;;;;;;;20.70;59.30;;;;;;10196846;28;94514;-70
2023/05/25 19:35:37;;;;;;;;;;;20.70;59.30;;;;;;10214145;28;94587;-70
2023/05/25 19:40:39;;;;;;;;;;;20.70;59.40;;;;;;10196338;28;93015;-70
2023/05/25 19:45:42;;;;;;;;;;;20.60;59.20;;;;;;10212505;28;93995;-71
2023/05/25 19:50:44;;;;;;;;;;;20.60;59.10;;;;;;10213101;28;93772;-71
2023/05/25 19:55:46;;;;;;;;;;;20.60;59.10;;;;;;10211599;28;93677;-71
2023/05/25 20:00:48;;;;;;;;;;;20.60;59.10;;;;;;10211097;28;94608;-71
2023/05/25 20:05:50;;;;;;;;;;;20.50;59.00;;;;;;10191671;28;95554;-70
2023/05/25 20:10:52;;;;;;;;;;;20.50;59.10;;;;;;10210790;28;93668;-70
2023/05/25 20:15:54;;;;;;;;;;;20.50;59.40;;;;;;10211219;28;94523;-70
2023/05/25 20:20:56;;;;;;;;;;;20.50;59.60;;;;;;10210171;28;94506;-69
2023/05/25 20:25:58;;;;;;;;;;;20.40;59.50;;;;;;10210608;28;94573;-70
2023/05/25 20:31:00;;;;;;;;;;;20.40;59.50;;;;;;10210343;28;94640;-70
2023/05/25 20:36:02;;;;;;;;;;;20.40;59.60;;;;;;10210530;28;92785;-69
2023/05/25 20:41:03;;;;;;;;;;;20.30;59.40;;;;;;10212643;28;92798;-69
2023/05/25 20:46:06;;;;;;;;;;;20.30;59.10;;;;;;10214201;28;93895;-69
2023/05/25 20:51:10;;;;;;;;;;;20.30;58.80;;;;;;10215362;28;93898;-69
2023/05/25 20:56:12;;;;;;;;;;;20.30;58.80;;;;;;10219016;28;95667;-68
2023/05/25 21:01:14;;;;;;;;;;;20.20;58.50;;;;;;10221556;28;94515;-69
2023/05/25 21:06:15;;;;;;;;;;;20.20;59.40;;;;;;10216389;28;94463;-68
2023/05/25 21:11:17;;;;;;;;;;;20.20;58.50;;;;;;10211335;28;93526;-69
2023/05/25 21:16:19;;;;;;;;;;;20.20;58.30;;;;;;10210708;28;94489;-69
2023/05/25 21:21:21;;;;;;;;;;;20.20;58.30;;;;;;10192187;28;93453;-70
2023/05/25 21:26:23;;;;;;;;;;;20.20;58.10;;;;;;10192571;28;94601;-70
2023/05/25 21:31:25;;;;;;;;;;;20.20;58.10;;;;;;10209742;28;92775;-67
2023/05/25 21:36:26;;;;;;;;;;;20.20;58.00;;;;;;10209056;28;93442;-68
2023/05/25 21:41:28;;;;;;;;;;;20.10;57.90;;;;;;10209507;28;94652;-68
2023/05/25 21:46:30;;;;;;;;;;;20.10;57.80;;;;;;10206961;28;95986;-68
2023/05/25 21:51:32;;;;;;;;;;;20.10;57.80;;;;;;10208427;28;93490;-68
2023/05/25 21:56:33;;;;;;;;;;;20.10;57.70;;;;;;10209171;28;94576;-68
2023/05/25 22:01:35;;;;;;;;;;;20.10;57.60;;;;;;10209701;28;93993;-70
2023/05/25 22:06:37;;;;;;;;;;;20.10;57.40;;;;;;10207537;28;93417;-71
2023/05/25 22:11:39;;;;;;;;;;;20.10;57.40;;;;;;10209159;28;94110;-69
2023/05/25 22:16:40;;;;;;;;;;;20.10;57.30;;;;;;10209703;28;94094;-69
2023/05/25 22:21:42;;;;;;;;;;;20.10;57.20;;;;;;10208996;28;92671;-69
2023/05/25 22:26:44;;;;;;;;;;;20.00;57.10;;;;;;10208958;28;94748;-70
2023/05/25 22:31:46;;;;;;;;;;;20.10;57.20;;;;;;10208051;28;94543;-70
2023/05/25 22:36:47;;;;;;;;;;;20.10;57.20;;;;;;10205613;28;96920;-69
2023/05/25 22:41:49;;;;;;;;;;;20.10;57.20;;;;;;10207996;28;94506;-69
2023/05/25 22:46:51;;;;;;;;;;;20.00;57.10;;;;;;10208877;28;93672;-69
2023/05/25 22:51:53;;;;;;;;;;;20.00;57.10;;;;;;10207337;28;94598;-69
2023/05/25 22:56:55;;;;;;;;;;;20.00;57.10;;;;;;10208363;28;94498;-69
2023/05/25 23:01:56;;;;;;;;;;;20.00;57.10;;;;;;10214122;28;94290;-69
2023/05/25 23:06:58;;;;;;;;;;;20.00;57.10;;;;;;10212903;28;93503;-69
2023/05/25 23:12:00;;;;;;;;;;;19.90;57.00;;;;;;10215566;28;93101;-69
2023/05/25 23:17:02;;;;;;;;;;;19.90;56.80;;;;;;10214474;28;94657;-69
2023/05/25 23:22:04;;;;;;;;;;;19.90;56.70;;;;;;10214838;28;93900;-69
2023/05/25 23:27:06;;;;;;;;;;;19.90;56.70;;;;;;10213149;28;96837;-69
2023/05/25 23:32:07;;;;;;;;;;;19.90;56.70;;;;;;10217371;28;94673;-69
2023/05/25 23:37:10;;;;;;;;;;;19.90;56.70;;;;;;10208432;28;94509;-69
2023/05/25 23:42:14;;;;;;;;;;;19.80;56.70;;;;;;10224938;28;94459;-69
2023/05/25 23:47:16;;;;;;;;;;;19.90;56.70;;;;;;10215773;28;93503;-69
2023/05/25 23:52:17;;;;;;;;;;;19.80;56.60;;;;;;10213880;28;93634;-70
2023/05/25 23:57:19;;;;;;;;;;;19.80;56.60;;;;;;10213263;28;93799;-69
